Time;durP1;ratioP1;P1;durP2;ratioP2;P2;SDS_P1;SDS_P2;PMS_P1;PMS_P2;Temp;Humidity;BMP_temperature;BMP_pressure;BME280_temperature;BME280_humidity;BME280_pressure;Samples;Min_cycle;Max_cycle;Signal;HPM_P1;HPM_P2
2021/04/22 00:01:50;;;;;;;0.93;0.85;;;6.90;99.90;;;;;;4991257;28;20215;-67
2021/04/22 00:04:16;;;;;;;0.98;0.88;;;6.80;99.90;;;;;;4991025;28;20202;-68
2021/04/22 00:06:43;;;;;;;0.30;0.30;;;6.70;99.90;;;;;;4991014;28;20159;-67
2021/04/22 00:09:09;;;;;;;0.20;0.20;;;6.60;99.90;;;;;;4991047;28;20164;-67
2021/04/22 00:11:36;;;;;;;0.20;0.20;;;6.60;99.90;;;;;;4991035;28;20187;-68
2021/04/22 00:14:06;;;;;;;0.43;0.43;;;6.50;99.90;;;;;;4990837;28;20235;-68
2021/04/22 00:16:32;;;;;;;0.63;0.60;;;6.30;99.90;;;;;;4991024;28;20225;-68
2021/04/22 00:18:58;;;;;;;1.15;1.05;;;6.10;99.90;;;;;;4990831;28;20171;-67
2021/04/22 00:21:27;;;;;;;0.40;0.40;;;6.00;99.90;;;;;;4990726;28;20227;-68
2021/04/22 00:23:53;;;;;;;0.17;0.17;;;6.00;99.90;;;;;;4990727;28;20199;-68
2021/04/22 00:26:19;;;;;;;0.35;0.35;;;6.10;99.90;;;;;;4990753;28;20194;-67
2021/04/22 00:28:45;;;;;;;1.38;0.68;;;6.10;99.90;;;;;;4989251;28;20175;-68
2021/04/22 00:31:11;;;;;;;0.20;0.20;;;6.10;99.90;;;;;;4990647;28;20167;-68
2021/04/22 00:33:37;;;;;;;0.20;0.20;;;5.90;99.90;;;;;;4990463;28;20251;-67
2021/04/22 00:36:04;;;;;;;0.20;0.20;;;6.00;99.90;;;;;;4990478;28;20630;-68
2021/04/22 00:38:30;;;;;;;0.80;0.80;;;6.20;99.90;;;;;;4989188;28;20207;-67
2021/04/22 00:40:56;;;;;;;0.30;0.30;;;6.40;99.90;;;;;;4990355;28;20159;-67
2021/04/22 00:43:23;;;;;;;0.20;0.20;;;6.50;99.90;;;;;;4990371;28;20195;-67
2021/04/22 00:45:50;;;;;;;1.02;0.95;;;6.60;99.90;;;;;;4988896;28;20179;-68
2021/04/22 00:48:25;;;;;;;0.10;0.10;;;6.60;99.90;;;;;;4990241;28;20185;-67
2021/04/22 00:50:52;;;;;;;1.65;1.33;;;6.70;99.90;;;;;;4990041;28;20167;-67
2021/04/22 00:53:20;;;;;;;0.20;0.20;;;6.70;99.90;;;;;;4989886;28;20219;-66
2021/04/22 00:55:48;;;;;;;0.20;0.20;;;6.70;99.90;;;;;;4990040;28;20195;-68
2021/04/22 00:58:15;;;;;;;3.38;1.08;;;6.50;99.90;;;;;;4989946;28;20160;-68
2021/04/22 01:01:02;;;;;;;0.50;0.32;;;6.40;99.90;;;;;;4988612;28;20187;-68
2021/04/22 01:03:30;;;;;;;0.28;0.28;;;6.30;99.90;;;;;;4989877;28;20210;-68
2021/04/22 01:05:59;;;;;;;0.65;0.65;;;6.30;99.90;;;;;;4989554;28;20166;-67
2021/04/22 01:08:26;;;;;;;0.35;0.22;;;6.20;99.90;;;;;;4990014;28;20179;-67
2021/04/22 01:10:52;;;;;;;1.88;0.85;;;6.10;99.90;;;;;;4988389;28;20263;-67
2021/04/22 01:13:18;;;;;;;0.20;0.20;;;6.10;99.90;;;;;;4990025;28;20194;-68
2021/04/22 01:15:44;;;;;;;0.30;0.30;;;6.20;99.90;;;;;;4988747;28;20206;-68
2021/04/22 01:18:10;;;;;;;0.10;0.10;;;6.40;99.90;;;;;;4989356;28;20155;-68
2021/04/22 01:20:46;;;;;;;0.30;0.30;;;6.20;99.90;;;;;;4989732;28;20330;-68
2021/04/22 01:23:13;;;;;;;0.50;0.50;;;6.00;99.90;;;;;;4988566;28;20222;-68
2021/04/22 01:25:45;;;;;;;0.28;0.28;;;5.90;99.90;;;;;;4989934;28;20167;-68
2021/04/22 01:28:14;;;;;;;0.75;0.75;;;5.70;99.90;;;;;;4988558;28;20179;-68
2021/04/22 01:30:43;;;;;;;0.38;0.38;;;5.80;99.90;;;;;;4989831;28;20168;-69
2021/04/22 01:33:12;;;;;;;0.10;0.10;;;5.70;99.90;;;;;;4988412;28;20178;-68
2021/04/22 01:35:41;;;;;;;0.20;0.20;;;5.80;99.90;;;;;;4989703;28;20203;-68
2021/04/22 01:38:09;;;;;;;0.10;0.10;;;5.80;99.90;;;;;;4989553;28;20179;-68
2021/04/22 01:40:37;;;;;;;0.57;0.57;;;5.70;99.90;;;;;;4989726;28;20176;-68
2021/04/22 01:43:04;;;;;;;0.88;0.88;;;5.40;99.90;;;;;;4989438;28;20179;-67
2021/04/22 01:45:30;;;;;;;0.30;0.30;;;5.30;99.90;;;;;;4987850;28;20267;-68
2021/04/22 01:47:56;;;;;;;0.32;0.30;;;5.10;99.90;;;;;;4989466;28;20549;-67
2021/04/22 01:50:29;;;;;;;0.10;0.10;;;5.10;99.90;;;;;;4989205;28;20163;-67
2021/04/22 01:52:55;;;;;;;0.20;0.20;;;5.20;99.90;;;;;;4989381;28;20692;-67
2021/04/22 01:55:35;;;;;;;0.13;0.13;;;5.20;99.90;;;;;;4988096;28;20338;-68
2021/04/22 01:58:02;;;;;;;0.45;0.45;;;5.30;99.90;;;;;;4988299;28;20239;-66
2021/04/22 02:00:40;;;;;;;0.60;0.60;;;5.30;99.90;;;;;;4989988;28;20164;-68
2021/04/22 02:03:07;;;;;;;0.20;0.20;;;5.30;99.90;;;;;;4989327;28;20187;-67
2021/04/22 02:05:38;;;;;;;0.17;0.17;;;5.50;99.90;;;;;;4987792;28;20202;-68
2021/04/22 02:08:05;;;;;;;0.20;0.20;;;5.50;99.90;;;;;;4989246;28;20480;-67
2021/04/22 02:10:32;;;;;;;0.68;0.68;;;6.00;99.90;;;;;;4987757;28;20183;-67
2021/04/22 02:12:58;;;;;;;0.40;0.40;;;6.30;99.90;;;;;;4989171;28;20155;-67
2021/04/22 02:15:27;;;;;;;0.40;0.40;;;6.40;99.90;;;;;;4988972;28;20562;-67
2021/04/22 02:17:53;;;;;;;0.10;0.10;;;6.80;99.90;;;;;;4990569;28;20247;-68
2021/04/22 02:20:20;;;;;;;0.10;0.10;;;7.20;99.90;;;;;;4993044;28;20218;-68
2021/04/22 02:22:47;;;;;;;1.27;1.17;;;7.30;99.90;;;;;;4992464;28;20187;-68
2021/04/22 02:25:15;;;;;;;0.10;0.10;;;7.40;99.90;;;;;;4993053;28;20194;-67
2021/04/22 02:27:42;;;;;;;0.10;0.10;;;7.80;99.90;;;;;;4991714;28;20179;-68
2021/04/22 02:30:14;;;;;;;0.30;0.30;;;8.00;99.90;;;;;;4993195;28;20179;-68
2021/04/22 02:32:41;;;;;;;0.35;0.35;;;8.30;99.90;;;;;;4993008;28;20167;-68
2021/04/22 02:35:09;;;;;;;0.30;0.30;;;8.50;99.90;;;;;;4992615;28;20271;-68
2021/04/22 02:37:36;;;;;;;0.13;0.13;;;8.50;99.90;;;;;;4991387;28;20168;-66
2021/04/22 02:40:07;;;;;;;0.20;0.20;;;8.40;99.90;;;;;;4992799;28;20163;-69
2021/04/22 02:42:33;;;;;;;0.20;0.20;;;8.30;99.90;;;;;;4992964;28;20234;-69
2021/04/22 02:44:59;;;;;;;0.50;0.50;;;8.20;99.90;;;;;;4991219;28;20269;-68
2021/04/22 02:47:24;;;;;;;0.10;0.10;;;8.20;99.90;;;;;;4992707;28;20171;-67
2021/04/22 02:49:50;;;;;;;0.20;0.20;;;8.00;99.90;;;;;;4992734;28;20159;-68
2021/04/22 02:52:16;;;;;;;0.85;0.85;;;8.00;99.90;;;;;;4992510;28;20155;-67
2021/04/22 02:54:42;;;;;;;0.80;0.80;;;7.90;99.90;;;;;;4992270;28;20211;-69
2021/04/22 02:57:10;;;;;;;0.22;0.22;;;7.80;99.90;;;;;;4991024;28;20239;-68
2021/04/22 02:59:36;;;;;;;0.35;0.35;;;7.70;99.90;;;;;;4992519;28;20167;-68
2021/04/22 03:02:02;;;;;;;0.10;0.10;;;8.00;99.90;;;;;;4990889;28;20203;-68
2021/04/22 03:04:28;;;;;;;0.25;0.20;;;8.30;99.90;;;;;;4992329;28;20199;-66
2021/04/22 03:06:54;;;;;;;0.10;0.10;;;8.80;99.90;;;;;;4992221;28;20170;-67
2021/04/22 03:09:20;;;;;;;0.10;0.10;;;9.10;99.90;;;;;;4992118;28;20476;-67
2021/04/22 03:11:45;;;;;;;0.10;0.10;;;9.20;99.90;;;;;;4992050;28;20164;-67
2021/04/22 03:14:11;;;;;;;0.47;0.47;;;9.30;99.90;;;;;;4991935;28;20211;-67
2021/04/22 03:16:37;;;;;;;0.13;0.13;;;9.40;99.90;;;;;;4992037;28;20170;-67
2021/04/22 03:19:03;;;;;;;0.30;0.30;;;9.50;99.90;;;;;;4990598;28;20167;-67
2021/04/22 03:21:29;;;;;;;0.10;0.10;;;9.40;99.90;;;;;;4991681;28;20203;-68
2021/04/22 03:23:55;;;;;;;0.73;0.73;;;9.20;99.90;;;;;;4991943;28;20271;-68
2021/04/22 03:26:21;;;;;;;0.82;0.82;;;8.70;99.90;;;;;;4990596;28;20175;-67
2021/04/22 03:28:47;;;;;;;0.30;0.30;;;8.20;99.90;;;;;;4991370;28;20163;-68
2021/04/22 03:31:14;;;;;;;0.90;0.90;;;7.80;99.90;;;;;;4991491;28;20179;-68
2021/04/22 03:33:39;;;;;;;0.30;0.30;;;7.40;99.90;;;;;;4991670;28;20206;-67
2021/04/22 03:36:06;;;;;;;0.80;0.65;;;7.30;99.90;;;;;;4991549;28;20195;-67
2021/04/22 03:38:32;;;;;;;1.08;1.08;;;7.10;99.90;;;;;;4991750;28;20175;-67
2021/04/22 03:40:58;;;;;;;0.40;0.40;;;7.00;99.90;;;;;;4991515;28;20251;-67
2021/04/22 03:43:23;;;;;;;1.45;0.70;;;7.00;99.90;;;;;;4991589;28;20182;-69
2021/04/22 03:45:49;;;;;;;0.10;0.10;;;6.90;99.90;;;;;;4991403;28;20166;-67
2021/04/22 03:48:15;;;;;;;0.82;0.82;;;6.80;99.90;;;;;;4991349;28;20163;-66
2021/04/22 03:50:41;;;;;;;0.40;0.40;;;6.90;99.90;;;;;;4991358;28;20182;-69
2021/04/22 03:53:07;;;;;;;1.50;1.40;;;6.90;99.90;;;;;;4991356;28;20167;-68
2021/04/22 03:55:33;;;;;;;0.95;0.95;;;6.80;99.90;;;;;;4991044;28;20203;-68
2021/04/22 03:57:59;;;;;;;0.50;0.50;;;6.70;99.90;;;;;;4991362;28;20167;-68
2021/04/22 04:00:25;;;;;;;0.40;0.40;;;6.70;99.90;;;;;;4991244;28;20191;-67
2021/04/22 04:02:51;;;;;;;0.30;0.30;;;6.50;99.90;;;;;;4989705;28;20175;-67
2021/04/22 04:05:18;;;;;;;0.70;0.70;;;6.50;99.90;;;;;;4991198;28;20548;-68
2021/04/22 04:07:45;;;;;;;0.70;0.70;;;6.40;99.90;;;;;;4989771;28;20206;-68
2021/04/22 04:10:11;;;;;;;2.03;1.88;;;6.30;99.90;;;;;;4990893;28;20170;-68
2021/04/22 04:12:38;;;;;;;3.85;0.70;;;6.30;99.90;;;;;;4989710;28;20202;-68
2021/04/22 04:15:07;;;;;;;2.30;0.85;;;6.30;99.90;;;;;;4990703;28;20199;-68
2021/04/22 04:17:33;;;;;;;0.57;0.57;;;6.40;99.90;;;;;;4990635;28;20227;-68
2021/04/22 04:19:59;;;;;;;0.10;0.10;;;6.20;99.90;;;;;;4990616;28;20222;-68
2021/04/22 04:22:25;;;;;;;0.35;0.35;;;6.20;99.90;;;;;;4990815;28;20226;-69
2021/04/22 04:24:51;;;;;;;0.45;0.45;;;6.20;99.90;;;;;;4990977;28;20207;-68
2021/04/22 04:27:17;;;;;;;4.13;1.75;;;6.20;99.90;;;;;;4991150;28;20183;-68
2021/04/22 04:29:43;;;;;;;17.10;1.25;;;6.30;99.90;;;;;;4990566;28;20171;-68
2021/04/22 04:32:09;;;;;;;0.20;0.20;;;6.20;99.90;;;;;;4989124;28;20274;-68
2021/04/22 04:34:34;;;;;;;0.68;0.68;;;6.20;99.90;;;;;;4990539;28;20207;-66
2021/04/22 04:37:02;;;;;;;0.40;0.40;;;6.20;99.90;;;;;;4990323;28;20156;-67
2021/04/22 04:39:29;;;;;;;0.10;0.10;;;6.20;99.90;;;;;;4988757;28;20171;-67
2021/04/22 04:41:56;;;;;;;2.25;1.98;;;6.40;99.90;;;;;;4988331;28;20171;-67
2021/04/22 04:44:22;;;;;;;0.20;0.20;;;6.70;99.90;;;;;;4989080;28;20604;-66
2021/04/22 04:46:48;;;;;;;0.38;0.38;;;7.10;99.90;;;;;;4990293;28;20167;-68
2021/04/22 04:49:14;;;;;;;0.20;0.20;;;7.50;99.90;;;;;;4988968;28;20179;-66
2021/04/22 04:51:40;;;;;;;0.40;0.40;;;8.00;99.90;;;;;;4989790;28;20183;-67
2021/04/22 04:54:06;;;;;;;1.10;1.10;;;8.10;99.90;;;;;;4989856;28;20207;-66
2021/04/22 04:56:32;;;;;;;0.30;0.30;;;8.00;99.90;;;;;;4989674;28;20238;-67
2021/04/22 04:58:59;;;;;;;0.43;0.43;;;7.90;99.90;;;;;;4989911;28;20650;-67
2021/04/22 05:01:25;;;;;;;0.60;0.60;;;8.40;99.90;;;;;;4989651;28;20190;-67
2021/04/22 05:03:51;;;;;;;0.30;0.25;;;9.00;99.90;;;;;;4989289;28;20195;-67
2021/04/22 05:06:17;;;;;;;0.43;0.43;;;9.80;99.90;;;;;;4989792;28;20162;-67
2021/04/22 05:08:42;;;;;;;5.15;2.15;;;10.40;99.90;;;;;;4988189;28;20179;-67
2021/04/22 05:11:09;;;;;;;0.10;0.10;;;10.90;99.90;;;;;;4989527;28;20218;-67
2021/04/22 05:13:35;;;;;;;0.40;0.40;;;11.00;99.90;;;;;;4989534;28;20183;-66
2021/04/22 05:16:00;;;;;;;0.68;0.68;;;11.30;99.90;;;;;;4989653;28;20191;-67
2021/04/22 05:18:27;;;;;;;0.75;0.70;;;11.70;99.90;;;;;;4989466;28;20160;-67
2021/04/22 05:20:53;;;;;;;1.05;1.05;;;12.30;99.90;;;;;;4987746;28;20234;-67
2021/04/22 05:23:20;;;;;;;0.73;0.73;;;12.50;99.90;;;;;;4989130;28;20194;-66
2021/04/22 05:25:48;;;;;;;0.30;0.30;;;12.80;99.90;;;;;;4988591;28;20163;-67
2021/04/22 05:28:14;;;;;;;2.63;0.82;;;12.90;99.90;;;;;;4989249;28;20164;-67
2021/04/22 05:30:44;;;;;;;1.50;1.45;;;12.70;99.90;;;;;;4989041;28;20251;-67
2021/04/22 05:33:11;;;;;;;0.93;0.93;;;12.80;99.90;;;;;;4989332;28;20183;-67
2021/04/22 05:35:38;;;;;;;1.48;0.40;;;12.40;99.90;;;;;;4988003;28;20609;-67
2021/04/22 05:38:04;;;;;;;0.55;0.55;;;12.40;99.90;;;;;;4987586;28;20171;-68
2021/04/22 05:40:30;;;;;;;0.22;0.22;;;12.40;99.90;;;;;;4987448;28;20186;-67
2021/04/22 05:42:57;;;;;;;1.38;1.38;;;12.80;99.90;;;;;;4988988;28;20599;-68
2021/04/22 05:45:23;;;;;;;1.35;1.25;;;13.30;99.90;;;;;;4987753;28;20233;-67
2021/04/22 05:47:49;;;;;;;2.35;0.65;;;13.80;99.90;;;;;;4988976;28;20662;-67
2021/04/22 05:50:16;;;;;;;0.38;0.38;;;13.10;99.90;;;;;;4989008;28;20164;-67
2021/04/22 05:52:43;;;;;;;3.75;1.50;;;13.20;99.90;;;;;;4989035;28;20523;-69
2021/04/22 05:55:11;;;;;;;9.68;2.67;;;13.80;99.90;;;;;;4988652;28;20199;-68
2021/04/22 05:57:36;;;;;;;0.63;0.63;;;14.50;99.90;;;;;;4988908;28;20175;-67
2021/04/22 06:00:07;;;;;;;0.20;0.20;;;14.70;99.90;;;;;;4988768;28;20194;-68
2021/04/22 06:02:32;;;;;;;2.88;0.95;;;14.70;99.90;;;;;;4987432;28;20159;-68
2021/04/22 06:04:58;;;;;;;0.28;0.28;;;15.00;99.90;;;;;;4987195;28;20206;-68
2021/04/22 06:07:24;;;;;;;0.30;0.30;;;16.00;99.90;;;;;;4988622;28;20246;-69
2021/04/22 06:09:51;;;;;;;2.13;0.65;;;16.50;99.90;;;;;;4988983;28;20560;-69
2021/04/22 06:12:17;;;;;;;4.00;0.68;;;17.10;99.90;;;;;;4989111;28;20167;-69
2021/04/22 06:14:43;;;;;;;2.13;1.45;;;17.10;99.90;;;;;;4988538;28;20214;-69
2021/04/22 06:17:09;;;;;;;0.88;0.60;;;17.90;99.90;;;;;;4988736;28;20163;-70
2021/04/22 06:19:35;;;;;;;0.60;0.60;;;18.40;99.90;;;;;;4988525;28;20705;-69
2021/04/22 06:22:00;;;;;;;1.35;1.25;;;18.70;99.90;;;;;;4988692;28;20199;-68
2021/04/22 06:24:26;;;;;;;0.65;0.63;;;18.50;99.90;;;;;;4988489;28;20198;-68
2021/04/22 06:26:52;;;;;;;0.68;0.68;;;18.30;99.90;;;;;;4988746;28;20166;-68
2021/04/22 06:29:18;;;;;;;0.70;0.70;;;18.60;99.90;;;;;;4988715;28;20168;-68
2021/04/22 06:31:45;;;;;;;0.80;0.80;;;19.10;99.90;;;;;;4977052;28;20187;-68
2021/04/22 06:34:12;;;;;;;2.15;1.80;;;19.60;99.90;;;;;;4975993;28;20381;-68
2021/04/22 06:36:38;;;;;;;0.90;0.90;;;20.10;99.90;;;;;;4988704;28;20160;-69
2021/04/22 06:39:06;;;;;;;0.50;0.50;;;20.80;99.90;;;;;;4988628;28;20182;-69
2021/04/22 06:41:31;;;;;;;2.35;0.85;;;20.90;99.90;;;;;;4988402;28;20213;-69
2021/04/22 06:43:57;;;;;;;1.08;0.82;;;20.90;99.90;;;;;;4986032;28;20262;-67
2021/04/22 06:46:23;;;;;;;0.40;0.40;;;21.30;99.90;;;;;;4983305;28;20183;-70
2021/04/22 06:48:52;;;;;;;0.28;0.28;;;22.00;99.90;;;;;;4969171;28;20159;-69
2021/04/22 06:51:18;;;;;;;2.08;0.63;;;21.90;99.90;;;;;;4977893;28;20265;-69
2021/04/22 06:53:44;;;;;;;0.32;0.28;;;21.60;99.90;;;;;;4988597;28;20195;-68
2021/04/22 06:56:10;;;;;;;0.30;0.30;;;22.80;99.90;;;;;;4988539;28;20292;-69
2021/04/22 06:58:36;;;;;;;10.90;2.45;;;22.70;99.90;;;;;;4988512;28;20171;-66
2021/04/22 07:01:02;;;;;;;0.47;0.40;;;23.60;99.90;;;;;;4988451;28;20218;-68
2021/04/22 07:03:28;;;;;;;1.10;0.40;;;24.20;99.90;;;;;;4983218;28;20222;-68
2021/04/22 07:05:55;;;;;;;0.43;0.43;;;24.60;99.30;;;;;;4992229;28;20190;-68
2021/04/22 07:08:20;;;;;;;0.68;0.57;;;25.20;98.00;;;;;;4975834;28;20218;-69
2021/04/22 07:10:46;;;;;;;0.95;0.40;;;25.30;97.50;;;;;;4972605;28;20159;-68
2021/04/22 07:13:12;;;;;;;0.20;0.20;;;23.80;97.10;;;;;;4973180;28;20195;-69
2021/04/22 07:15:38;;;;;;;0.40;0.40;;;23.00;98.50;;;;;;4989429;28;20616;-69
2021/04/22 07:18:06;;;;;;;0.52;0.52;;;23.30;96.50;;;;;;4969731;28;20822;-69
2021/04/22 07:20:32;;;;;;;0.52;0.52;;;23.10;97.40;;;;;;4972398;28;20245;-69
2021/04/22 07:22:59;;;;;;;0.88;0.50;;;22.90;97.30;;;;;;4971706;29;20188;-69
2021/04/22 07:25:28;;;;;;;0.50;0.45;;;23.40;98.00;;;;;;4971047;29;20164;-69
2021/04/22 07:27:54;;;;;;;0.28;0.28;;;24.10;97.10;;;;;;4972282;28;20218;-69
2021/04/22 07:30:21;;;;;;;0.65;0.65;;;25.60;95.50;;;;;;4971299;29;20182;-67
2021/04/22 07:32:47;;;;;;;0.52;0.45;;;25.60;93.70;;;;;;4971125;29;20694;-68
2021/04/22 07:35:15;;;;;;;3.78;0.65;;;24.20;94.20;;;;;;4970299;29;20198;-68
2021/04/22 07:37:41;;;;;;;0.40;0.40;;;23.40;95.00;;;;;;4970821;28;20674;-69
2021/04/22 07:40:09;;;;;;;12.95;1.02;;;24.00;94.20;;;;;;4970930;29;20174;-67
2021/04/22 07:42:35;;;;;;;0.52;0.52;;;24.20;94.40;;;;;;4978507;28;20186;-69
2021/04/22 07:45:03;;;;;;;0.35;0.35;;;24.20;95.00;;;;;;4990172;28;20171;-69
2021/04/22 07:47:29;;;;;;;0.38;0.28;;;22.80;96.00;;;;;;4990187;28;20199;-69
2021/04/22 07:49:55;;;;;;;3.00;0.65;;;23.90;95.40;;;;;;4990021;28;20507;-68
2021/04/22 07:52:22;;;;;;;0.50;0.50;;;24.70;93.90;;;;;;4991416;28;20170;-70
2021/04/22 07:54:48;;;;;;;0.40;0.40;;;26.00;92.10;;;;;;4991638;28;20189;-70
2021/04/22 07:57:14;;;;;;;0.35;0.30;;;26.20;92.20;;;;;;4991340;28;20214;-70
2021/04/22 07:59:40;;;;;;;4.50;0.70;;;25.40;91.50;;;;;;4991314;28;20159;-70
2021/04/22 08:02:08;;;;;;;0.40;0.40;;;26.40;92.10;;;;;;4991636;28;20170;-69
2021/04/22 08:04:35;;;;;;;0.82;0.82;;;26.00;92.10;;;;;;4991574;28;20234;-68
2021/04/22 08:07:01;;;;;;;0.95;0.95;;;24.80;93.20;;;;;;4980590;28;20183;-69
2021/04/22 08:09:27;;;;;;;1.80;0.55;;;25.30;92.50;;;;;;4988982;28;20206;-70
2021/04/22 08:11:53;;;;;;;1.67;0.55;;;26.40;91.70;;;;;;4991291;28;20193;-69
2021/04/22 08:14:19;;;;;;;1.02;0.93;;;26.70;90.90;;;;;;4990872;28;20254;-69
2021/04/22 08:16:45;;;;;;;5.35;1.35;;;26.90;90.20;;;;;;4990043;28;20227;-69
2021/04/22 08:19:11;;;;;;;1.02;0.77;;;26.20;90.70;;;;;;4991214;28;20194;-70
2021/04/22 08:21:37;;;;;;;0.70;0.70;;;25.20;90.50;;;;;;4990281;28;20242;-70
2021/04/22 08:24:04;;;;;;;1.13;0.95;;;25.60;90.40;;;;;;4991056;28;20159;-70
2021/04/22 08:26:30;;;;;;;3.22;0.68;;;25.20;90.90;;;;;;4986781;28;20210;-70
2021/04/22 08:28:56;;;;;;;0.20;0.20;;;24.10;90.50;;;;;;4971387;28;20191;-69
2021/04/22 08:31:25;;;;;;;0.13;0.13;;;24.50;90.80;;;;;;4969870;29;20174;-70
2021/04/22 08:33:58;;;;;;;0.95;0.63;;;26.00;91.80;;;;;;4970937;28;20239;-71
2021/04/22 08:36:25;;;;;;;0.52;0.52;;;27.70;88.90;;;;;;4971034;28;20215;-69
2021/04/22 08:38:52;;;;;;;0.70;0.70;;;26.70;88.50;;;;;;4970866;28;20701;-69
2021/04/22 08:41:19;;;;;;;0.40;0.40;;;26.10;89.60;;;;;;4970969;28;20160;-70
2021/04/22 08:43:47;;;;;;;0.63;0.57;;;26.60;89.30;;;;;;4980748;28;20274;-69
2021/04/22 08:46:14;;;;;;;0.52;0.30;;;27.20;89.00;;;;;;4988742;28;20167;-70
2021/04/22 08:48:44;;;;;;;3.17;1.90;;;27.30;87.60;;;;;;4990128;28;20202;-70
2021/04/22 08:51:12;;;;;;;0.52;0.47;;;28.00;86.40;;;;;;4990040;28;20750;-70
2021/04/22 08:53:42;;;;;;;0.65;0.50;;;28.00;86.80;;;;;;4988538;28;20275;-72
2021/04/22 08:56:09;;;;;;;0.60;0.60;;;27.50;85.70;;;;;;4989990;28;20254;-70
2021/04/22 08:58:36;;;;;;;1.17;0.75;;;27.30;84.20;;;;;;4990138;28;20194;-70
2021/04/22 09:01:09;;;;;;;0.93;0.55;;;27.40;87.60;;;;;;4988839;28;20234;-71
2021/04/22 09:03:35;;;;;;;0.47;0.38;;;26.90;84.50;;;;;;4989929;28;20160;-71
2021/04/22 09:06:01;;;;;;;0.57;0.55;;;27.60;86.70;;;;;;4989953;28;20166;-69
2021/04/22 09:08:37;;;;;;;1.27;1.13;;;28.70;84.10;;;;;;4989789;28;20191;-69
2021/04/22 09:11:05;;;;;;;1.48;0.80;;;28.70;81.40;;;;;;4989607;28;20163;-71
2021/04/22 09:13:33;;;;;;;1.75;1.17;;;27.90;84.80;;;;;;4989834;28;20174;-70
2021/04/22 09:16:05;;;;;;;0.98;0.95;;;26.00;84.10;;;;;;4989628;28;20198;-69
2021/04/22 09:18:42;;;;;;;1.38;1.02;;;24.40;85.00;;;;;;4989504;28;20202;-69
2021/04/22 09:21:21;;;;;;;1.08;0.98;;;23.60;87.60;;;;;;4989447;28;20233;-69
2021/04/22 09:24:00;;;;;;;1.05;0.65;;;23.10;90.40;;;;;;4988398;28;20617;-69
2021/04/22 09:26:46;;;;;;;0.57;0.57;;;22.10;91.90;;;;;;4989253;28;20155;-69
2021/04/22 09:29:29;;;;;;;0.80;0.40;;;21.70;91.50;;;;;;4989301;28;20198;-69
2021/04/22 09:32:10;;;;;;;0.65;0.52;;;20.90;91.70;;;;;;4986959;28;20203;-71
2021/04/22 09:34:36;;;;;;;1.13;1.08;;;19.90;92.70;;;;;;4987820;28;20195;-70
2021/04/22 09:37:03;;;;;;;0.40;0.40;;;19.70;92.50;;;;;;4988165;28;20218;-70
2021/04/22 09:39:33;;;;;;;0.65;0.65;;;19.90;93.40;;;;;;4989205;28;20182;-70
2021/04/22 09:42:05;;;;;;;0.35;0.35;;;20.70;92.20;;;;;;4989238;28;20190;-70
2021/04/22 09:44:31;;;;;;;0.50;0.50;;;22.60;90.50;;;;;;4975579;28;20202;-70
2021/04/22 09:47:05;;;;;;;0.35;0.35;;;23.30;87.90;;;;;;4970026;28;20168;-71
2021/04/22 09:49:31;;;;;;;0.93;0.77;;;24.60;87.80;;;;;;4980839;28;20187;-70
2021/04/22 09:52:07;;;;;;;7.22;1.15;;;23.90;86.30;;;;;;4989071;28;20202;-71
2021/04/22 09:54:59;;;;;;;0.68;0.68;;;23.40;89.00;;;;;;4988988;28;20190;-71
2021/04/22 09:57:30;;;;;;;0.35;0.35;;;22.40;86.60;;;;;;4968403;29;20266;-71
2021/04/22 09:59:58;;;;;;;1.23;1.15;;;21.60;89.60;;;;;;4969802;28;20231;-70
2021/04/22 10:02:25;;;;;;;0.20;0.20;;;20.30;91.10;;;;;;4968546;29;20560;-70
2021/04/22 10:04:54;;;;;;;3.33;1.13;;;20.10;91.60;;;;;;4968651;29;20262;-69
2021/04/22 10:07:33;;;;;;;1.10;0.50;;;20.60;89.70;;;;;;4969785;28;20159;-68
2021/04/22 10:10:11;;;;;;;0.52;0.52;;;20.50;90.70;;;;;;4968108;29;20227;-68
2021/04/22 10:12:37;;;;;;;1.40;1.38;;;20.50;90.70;;;;;;4969445;28;20163;-69
2021/04/22 10:15:14;;;;;;;0.57;0.55;;;21.50;90.10;;;;;;4968394;29;20210;-68
2021/04/22 10:17:40;;;;;;;1.63;0.93;;;21.80;89.70;;;;;;4969349;28;20155;-68
2021/04/22 10:20:08;;;;;;;0.20;0.20;;;21.00;91.40;;;;;;4967800;29;20247;-68
2021/04/22 10:22:41;;;;;;;0.43;0.43;;;21.40;89.80;;;;;;4969755;28;20155;-69
2021/04/22 10:25:14;;;;;;;0.52;0.52;;;20.50;86.10;;;;;;4969834;28;20164;-68
2021/04/22 10:27:42;;;;;;;0.20;0.20;;;20.20;88.40;;;;;;4969627;28;20232;-68
2021/04/22 10:30:17;;;;;;;0.60;0.60;;;21.00;90.30;;;;;;4969496;28;20202;-69
2021/04/22 10:32:43;;;;;;;0.32;0.28;;;22.20;88.30;;;;;;4969702;28;20171;-69
2021/04/22 10:35:12;;;;;;;0.20;0.15;;;20.70;90.50;;;;;;4968436;29;20207;-68
2021/04/22 10:37:44;;;;;;;0.20;0.20;;;18.10;92.60;;;;;;4968052;28;20200;-69
2021/04/22 10:40:11;;;;;;;0.10;0.10;;;17.50;93.10;;;;;;4973033;28;20224;-68
2021/04/22 10:42:38;;;;;;;0.30;0.30;;;17.30;93.20;;;;;;4972175;28;20157;-69
2021/04/22 10:45:08;;;;;;;0.40;0.40;;;17.00;94.40;;;;;;4991195;28;20191;-68
2021/04/22 10:47:34;;;;;;;0.40;0.40;;;16.80;97.40;;;;;;4992313;28;20206;-69
2021/04/22 10:50:00;;;;;;;0.20;0.20;;;16.10;97.80;;;;;;4989439;28;20210;-68
2021/04/22 10:52:27;;;;;;;0.32;0.30;;;16.10;98.10;;;;;;4973172;28;20168;-68
2021/04/22 10:54:53;;;;;;;0.38;0.38;;;15.80;99.90;;;;;;4971733;29;20231;-68
2021/04/22 10:57:23;;;;;;;0.30;0.30;;;15.40;99.90;;;;;;4989914;28;20183;-69
2021/04/22 11:00:01;;;;;;;0.57;0.57;;;14.90;99.90;;;;;;4990700;28;20249;-69
2021/04/22 11:02:27;;;;;;;0.85;0.55;;;15.30;99.90;;;;;;4992433;28;20625;-68
2021/04/22 11:04:53;;;;;;;7.07;0.50;;;16.70;99.90;;;;;;4992100;28;20250;-67
2021/04/22 11:07:23;;;;;;;0.68;0.68;;;18.60;99.90;;;;;;4992286;28;20167;-70
2021/04/22 11:09:51;;;;;;;0.68;0.68;;;20.50;99.90;;;;;;4992175;28;20203;-69
2021/04/22 11:12:43;;;;;;;0.70;0.70;;;21.90;96.30;;;;;;4992012;28;20173;-68
2021/04/22 11:15:20;;;;;;;0.30;0.30;;;23.40;95.80;;;;;;4991128;28;20225;-68
2021/04/22 11:17:46;;;;;;;0.20;0.20;;;24.30;92.90;;;;;;4992314;28;20243;-69
2021/04/22 11:20:17;;;;;;;2.65;0.77;;;24.90;92.50;;;;;;4991719;28;20227;-68
2021/04/22 11:22:46;;;;;;;0.38;0.38;;;24.90;91.80;;;;;;4990484;28;20186;-67
2021/04/22 11:25:24;;;;;;;0.15;0.13;;;25.50;90.70;;;;;;4991749;28;20181;-67
2021/04/22 11:27:53;;;;;;;0.55;0.55;;;26.50;90.60;;;;;;4991942;28;20281;-68
2021/04/22 11:30:28;;;;;;;0.77;0.43;;;26.70;86.80;;;;;;4991977;28;20298;-69
2021/04/22 11:32:56;;;;;;;2.30;0.68;;;25.60;88.00;;;;;;4992026;28;20247;-70
2021/04/22 11:35:24;;;;;;;1.13;0.65;;;26.40;88.60;;;;;;4991770;28;20243;-69
2021/04/22 11:38:10;;;;;;;0.85;0.85;;;26.30;83.60;;;;;;4990633;28;20181;-68
2021/04/22 11:40:36;;;;;;;3.10;1.90;;;23.60;87.60;;;;;;4989714;28;20203;-68
2021/04/22 11:43:04;;;;;;;0.60;0.60;;;22.10;90.20;;;;;;4991421;28;20182;-67
2021/04/22 11:45:33;;;;;;;0.30;0.30;;;21.50;91.30;;;;;;4991462;28;20528;-68
2021/04/22 11:48:08;;;;;;;1.02;0.88;;;21.60;90.30;;;;;;4991032;28;20158;-69
2021/04/22 11:51:00;;;;;;;0.82;0.75;;;20.90;92.50;;;;;;4991076;28;20195;-69
2021/04/22 11:53:40;;;;;;;0.70;0.68;;;20.10;92.80;;;;;;4990057;28;20183;-69
2021/04/22 11:56:07;;;;;;;0.68;0.63;;;19.10;93.30;;;;;;4981184;28;20215;-67
2021/04/22 11:58:38;;;;;;;1.13;0.57;;;19.10;94.40;;;;;;4976005;28;20544;-67
2021/04/22 12:01:10;;;;;;;0.65;0.32;;;19.00;94.30;;;;;;4985677;28;20206;-68
2021/04/22 12:03:41;;;;;;;0.47;0.43;;;19.00;94.50;;;;;;4989799;28;20195;-69
2021/04/22 12:06:09;;;;;;;0.52;0.45;;;19.30;94.20;;;;;;4989708;28;20168;-67
2021/04/22 12:08:41;;;;;;;0.20;0.20;;;20.30;93.40;;;;;;4990704;28;20159;-67
2021/04/22 12:11:10;;;;;;;0.38;0.38;;;21.00;93.70;;;;;;4990752;28;20280;-68
2021/04/22 12:13:36;;;;;;;1.20;0.80;;;21.70;93.50;;;;;;4989522;28;20178;-68
2021/04/22 12:16:05;;;;;;;0.90;0.75;;;22.10;91.50;;;;;;4990767;28;20187;-68
2021/04/22 12:18:43;;;;;;;0.82;0.82;;;21.10;93.10;;;;;;4990692;28;20214;-69
2021/04/22 12:21:13;;;;;;;0.98;0.88;;;20.20;94.10;;;;;;4990833;28;20231;-67
2021/04/22 12:23:42;;;;;;;0.63;0.63;;;19.60;93.70;;;;;;4990951;28;20683;-67
2021/04/22 12:26:15;;;;;;;0.25;0.25;;;19.60;93.90;;;;;;4989499;28;20167;-69
2021/04/22 12:29:08;;;;;;;0.38;0.38;;;19.30;94.00;;;;;;4989652;28;20171;-67
2021/04/22 12:31:42;;;;;;;0.45;0.40;;;18.80;94.80;;;;;;4988174;28;20222;-69
2021/04/22 12:34:35;;;;;;;0.38;0.38;;;18.80;95.50;;;;;;4989163;28;20171;-68
2021/04/22 12:37:11;;;;;;;4.13;0.82;;;18.70;94.50;;;;;;4989234;28;20184;-68
2021/04/22 12:39:40;;;;;;;0.30;0.30;;;18.50;95.40;;;;;;4990411;28;20171;-68
2021/04/22 12:42:19;;;;;;;0.20;0.20;;;18.40;95.80;;;;;;4990797;28;20614;-68
2021/04/22 12:45:10;;;;;;;1.13;0.68;;;18.20;95.70;;;;;;4989196;28;20175;-68
2021/04/22 12:47:44;;;;;;;0.30;0.30;;;18.20;95.70;;;;;;4990542;28;20217;-68
2021/04/22 12:50:14;;;;;;;0.77;0.77;;;18.30;95.90;;;;;;4990286;28;20281;-68
2021/04/22 12:52:41;;;;;;;0.88;0.82;;;18.20;95.80;;;;;;4988925;28;20244;-68
2021/04/22 12:55:14;;;;;;;0.43;0.43;;;18.20;96.10;;;;;;4988812;28;20211;-68
2021/04/22 12:57:40;;;;;;;0.88;0.30;;;18.20;95.50;;;;;;4985070;28;20201;-69